Time;durP1;ratioP1;P1;durP2;ratioP2;P2;SDS_P1;SDS_P2;PMS_P1;PMS_P2;Temp;Humidity;BMP_temperature;BMP_pressure;BME280_temperature;BME280_humidity;BME280_pressure;Samples;Min_cycle;Max_cycle;Signal;HPM_P1;HPM_P2
2024/01/22 00:04:28;;;;;;;93.32;45.13;;;;;;;-6.80;80.29;99586.56;10319574;28;20029;-58
2024/01/22 00:09:27;;;;;;;66.25;33.35;;;;;;;-7.00;80.49;99558.56;10318756;28;20128;-58
2024/01/22 00:14:26;;;;;;;59.55;30.60;;;;;;;-6.82;80.56;99598.16;10318924;28;20056;-58
2024/01/22 00:19:25;;;;;;;55.05;32.17;;;;;;;-7.05;80.49;99562.28;10318844;28;20128;-58
2024/01/22 00:24:24;;;;;;;71.72;35.40;;;;;;;-6.95;80.31;99572.50;10314898;28;20528;-58
2024/01/22 00:29:23;;;;;;;88.75;46.05;;;;;;;-6.79;80.32;99592.50;10317641;28;20485;-59
2024/01/22 00:34:22;;;;;;;86.95;45.60;;;;;;;-6.81;80.55;99594.88;10318005;28;20029;-58
2024/01/22 00:39:21;;;;;;;84.88;48.45;;;;;;;-6.80;80.93;99599.19;10317851;28;20029;-58
2024/01/22 00:44:20;;;;;;;104.70;55.28;;;;;;;-6.97;80.37;99571.47;10299487;28;20064;-58
2024/01/22 00:49:19;;;;;;;90.00;48.35;;;;;;;-7.42;80.37;99480.53;10317848;28;20030;-58
2024/01/22 00:54:19;;;;;;;106.97;54.83;;;;;;;-6.81;80.69;99587.31;10317477;28;20923;-58
2024/01/22 00:59:18;;;;;;;99.35;50.88;;;;;;;-7.98;80.21;99370.97;10317788;28;20112;-58
2024/01/22 01:04:17;;;;;;;58.70;29.45;;;;;;;-7.03;80.32;99565.84;10279377;28;1116141;-58
2024/01/22 01:09:16;;;;;;;122.10;68.05;;;;;;;-7.09;79.67;99562.72;10318962;28;20173;-58
2024/01/22 01:14:15;;;;;;;64.18;35.42;;;;;;;-7.18;79.71;99543.44;10319217;28;20033;-58
2024/01/22 01:19:13;;;;;;;71.68;36.85;;;;;;;-6.96;79.86;99578.31;10318440;28;20044;-59
2024/01/22 01:24:12;;;;;;;;;;;;;;;-7.04;79.41;99576.66;10318531;28;20052;-58
2024/01/22 01:29:11;;;;;;;50.23;27.00;;;;;;;-7.37;79.35;99539.84;10318929;28;19956;-58
2024/01/22 01:34:10;;;;;;;70.50;36.38;;;;;;;-7.28;79.97;99560.94;10316679;28;20108;-58
2024/01/22 01:39:11;;;;;;;50.28;29.30;;;;;;;-7.29;79.26;99546.56;10318248;28;20057;-58
2024/01/22 01:44:10;;;;;;;64.75;36.03;;;;;;;-7.20;79.78;99555.00;10333473;28;20084;-58
2024/01/22 01:49:09;;;;;;;61.78;33.65;;;;;;;-7.20;78.70;99555.00;10318235;28;20029;-58
2024/01/22 01:54:09;;;;;;;63.85;34.72;;;;;;;-7.40;79.63;99525.31;10319426;28;20098;-58
2024/01/22 01:59:08;;;;;;;46.33;24.08;;;;;;;-7.97;78.80;99497.84;10326521;28;20057;-58
2024/01/22 02:04:07;;;;;;;36.22;20.13;;;;;;;-8.88;78.66;99438.41;10325264;28;20569;-58
2024/01/22 02:09:06;;;;;;;72.82;33.28;;;;;;;-8.44;78.91;99561.19;10325751;28;20723;-58
2024/01/22 02:14:05;;;;;;;54.95;26.27;;;;;;;-8.43;78.39;99552.03;10322847;28;20050;-58
2024/01/22 02:19:04;;;;;;;36.10;19.15;;;;;;;-8.36;78.14;99551.91;10324823;28;20040;-58
2024/01/22 02:24:03;;;;;;;31.40;16.98;;;;;;;-8.43;78.76;99532.75;10324181;28;20037;-58
2024/01/22 02:29:02;;;;;;;32.88;19.48;;;;;;;-8.44;77.65;99525.97;10324422;28;20482;-58
2024/01/22 02:34:01;;;;;;;33.28;17.92;;;;;;;-8.31;78.86;99548.22;10324658;28;20857;-58
2024/01/22 02:39:00;;;;;;;38.33;20.92;;;;;;;-8.61;78.31;99480.56;10323191;28;20633;-58
2024/01/22 02:43:59;;;;;;;35.40;20.23;;;;;;;-8.14;78.53;99549.94;10323674;28;20115;-58
2024/01/22 02:48:58;;;;;;;45.15;23.98;;;;;;;-8.59;79.06;99458.97;10324717;28;20029;-58
2024/01/22 02:53:57;;;;;;;47.70;26.58;;;;;;;-8.12;78.28;99540.88;10323259;28;20957;-58
2024/01/22 02:58:56;;;;;;;43.25;22.10;;;;;;;-8.41;79.30;99476.66;10323610;28;20107;-58
2024/01/22 03:03:55;;;;;;;47.85;25.08;;;;;;;-8.26;78.98;99534.50;10323352;28;20049;-59
2024/01/22 03:08:54;;;;;;;56.03;29.45;;;;;;;-8.36;79.42;99523.31;10323042;28;20117;-58
2024/01/22 03:13:53;;;;;;;70.75;36.70;;;;;;;-8.20;79.82;99529.16;10323242;28;20033;-58
2024/01/22 03:18:53;;;;;;;77.93;36.47;;;;;;;-8.34;78.88;99531.94;10322731;28;20029;-59
2024/01/22 03:23:52;;;;;;;54.75;28.55;;;;;;;-9.06;79.00;99447.47;10303906;28;20065;-58
2024/01/22 03:28:51;;;;;;;79.47;41.35;;;;;;;-8.53;81.27;99567.81;10322564;28;20136;-58
2024/01/22 03:33:51;;;;;;;44.72;24.50;;;;;;;-8.43;79.72;99568.00;10322226;28;20784;-58
2024/01/22 03:38:51;;;;;;;50.47;26.05;;;;;;;-8.88;80.26;99477.03;10362643;28;20533;-58
2024/01/22 03:43:50;;;;;;;59.53;30.75;;;;;;;-8.53;80.74;99574.47;10362799;28;20451;-58
2024/01/22 03:48:49;;;;;;;55.10;33.65;;;;;;;-8.65;80.12;99564.06;10362910;28;20467;-58
2024/01/22 03:53:48;;;;;;;51.60;26.33;;;;;;;-9.14;80.26;99463.44;10361837;28;20075;-58
2024/01/22 03:58:47;;;;;;;53.30;27.98;;;;;;;-8.52;79.68;99557.00;10361477;28;20032;-58
2024/01/22 04:03:46;;;;;;;49.05;26.23;;;;;;;-8.46;80.46;99575.25;10360773;28;20075;-58
2024/01/22 04:08:45;;;;;;;65.70;34.72;;;;;;;-8.51;78.99;99552.88;10319718;28;20029;-58
2024/01/22 04:13:44;;;;;;;69.57;38.88;;;;;;;-8.69;79.46;99521.69;10320232;28;20033;-58
2024/01/22 04:18:43;;;;;;;86.80;41.47;;;;;;;-8.55;78.85;99544.13;10320024;28;20065;-58
2024/01/22 04:23:42;;;;;;;81.60;40.22;;;;;;;-8.51;78.64;99547.84;10319680;28;20774;-58
2024/01/22 04:28:41;;;;;;;64.32;32.22;;;;;;;-9.03;79.37;99490.56;10320220;28;20405;-58
2024/01/22 04:33:43;;;;;;;63.53;30.27;;;;;;;-8.68;79.92;99576.28;10320386;28;20059;-57
2024/01/22 04:38:42;;;;;;;56.97;29.05;;;;;;;-8.75;79.48;99579.84;10358366;28;21603;-57
2024/01/22 04:43:41;;;;;;;48.90;25.45;;;;;;;-8.65;79.37;99554.00;10321145;28;20510;-58
2024/01/22 04:48:40;;;;;;;53.13;27.55;;;;;;;-8.59;78.39;99559.63;10319780;28;20025;-58
2024/01/22 04:53:39;;;;;;;55.97;29.67;;;;;;;-9.08;78.80;99467.47;10319079;28;20043;-59
2024/01/22 04:58:38;;;;;;;90.78;41.83;;;;;;;-9.34;78.62;99453.81;10319436;28;20660;-60
2024/01/22 05:03:37;;;;;;;63.75;31.58;;;;;;;-8.83;79.64;99572.22;10319325;28;20115;-58
2024/01/22 05:08:36;;;;;;;55.80;28.35;;;;;;;-9.04;77.84;99584.34;10319004;28;20120;-58
2024/01/22 05:13:35;;;;;;;52.88;28.85;;;;;;;-9.60;77.98;99544.13;10318344;28;20033;-58
2024/01/22 05:18:34;;;;;;;52.33;29.92;;;;;;;-9.40;78.60;99594.00;10318939;28;20108;-58
2024/01/22 05:23:33;;;;;;;41.10;23.58;;;;;;;-9.71;78.47;99506.19;10318405;28;20128;-58
2024/01/22 05:28:32;;;;;;;47.40;24.77;;;;;;;-9.65;79.44;99507.56;10320207;28;20117;-58
2024/01/22 05:33:31;;;;;;;69.68;34.35;;;;;;;-9.34;78.72;99610.56;10327133;28;20086;-57
2024/01/22 05:38:30;;;;;;;68.55;34.92;;;;;;;-10.19;79.50;99451.66;10326490;28;20060;-58
2024/01/22 05:43:29;;;;;;;59.72;30.27;;;;;;;-9.06;78.48;99588.31;10308205;28;20049;-58
2024/01/22 05:48:28;;;;;;;64.88;36.15;;;;;;;-8.80;78.43;99596.06;10326450;28;20028;-58
2024/01/22 05:53:27;;;;;;;50.85;29.15;;;;;;;-9.24;78.11;99490.84;10323724;28;20045;-58
2024/01/22 05:58:26;;;;;;;52.42;28.60;;;;;;;-8.44;77.89;99581.34;10338241;28;20029;-58
2024/01/22 06:03:25;;;;;;;60.25;31.30;;;;;;;-8.57;78.46;99547.22;10340182;28;20064;-58
2024/01/22 06:08:24;;;;;;;102.47;49.20;;;;;;;-9.58;78.27;99382.72;10324958;28;20108;-58
2024/01/22 06:13:23;;;;;;;109.85;50.38;;;;;;;-8.66;78.10;99608.44;10324816;28;20146;-58
2024/01/22 06:18:22;;;;;;;125.03;52.90;;;;;;;-8.81;79.37;99599.31;10324017;28;20076;-58
2024/01/22 06:23:21;;;;;;;111.25;43.38;;;;;;;-9.37;78.98;99514.72;10322831;28;20157;-58
2024/01/22 06:28:20;;;;;;;104.78;46.47;;;;;;;-8.77;78.66;99614.00;10322673;28;20060;-58
2024/01/22 06:33:21;;;;;;;149.90;64.20;;;;;;;-9.09;79.18;99533.56;10322667;28;20044;-58
2024/01/22 06:38:20;;;;;;;137.70;61.42;;;;;;;-8.24;79.22;99617.72;10324082;28;20061;-58
2024/01/22 06:43:19;;;;;;;136.77;66.78;;;;;;;-8.01;79.45;99625.09;10322997;28;20076;-58
2024/01/22 06:48:17;;;;;;;131.07;68.40;;;;;;;-7.92;77.98;99615.06;10322021;28;20825;-58
2024/01/22 06:53:16;;;;;;;130.80;61.58;;;;;;;-8.36;78.03;99528.34;10323909;28;20037;-58
2024/01/22 06:58:16;;;;;;;118.60;58.47;;;;;;;-7.89;77.93;99600.25;10339549;28;20048;-58
2024/01/22 07:03:15;;;;;;;135.38;66.13;;;;;;;-7.73;77.96;99617.81;10322671;28;20483;-58
2024/01/22 07:08:15;;;;;;;143.10;66.32;;;;;;;-7.93;77.86;99553.72;10321345;28;20395;-58
2024/01/22 07:13:14;;;;;;;130.95;60.95;;;;;;;-7.99;77.74;99519.47;10327371;28;20064;-58
2024/01/22 07:18:13;;;;;;;152.40;72.60;;;;;;;-7.32;76.52;99609.31;10321214;28;20128;-58
2024/01/22 07:23:12;;;;;;;168.55;77.85;;;;;;;-7.23;77.05;99616.88;10325562;28;20094;-58
2024/01/22 07:28:11;;;;;;;87.07;41.22;;;;;;;-7.11;76.18;99607.09;10320970;28;20067;-58
2024/01/22 07:33:10;;;;;;;95.55;43.67;;;;;;;-7.39;74.67;99559.00;10329405;28;20124;-57
2024/01/22 07:38:09;;;;;;;120.60;53.33;;;;;;;-7.39;73.84;99609.44;10313888;28;20033;-58
2024/01/22 07:43:08;;;;;;;;;;;;;;;-7.75;76.20;99620.16;10306301;28;20065;-58
2024/01/22 07:48:10;;;;;;;91.57;37.97;;;;;;;-8.03;76.54;99593.81;10324117;28;19920;-58
2024/01/22 07:53:09;;;;;;;142.77;55.95;;;;;;;-7.76;76.37;99599.88;10327456;28;20057;-58
2024/01/22 07:58:09;;;;;;;120.95;53.22;;;;;;;-7.49;76.66;99596.66;10318603;28;20037;-58
2024/01/22 08:03:08;;;;;;;136.35;60.38;;;;;;;-7.82;76.85;99507.78;10323157;28;20080;-58
2024/01/22 08:08:09;;;;;;;135.27;60.83;;;;;;;-7.60;75.79;99558.69;10318256;28;20053;-59
2024/01/22 08:13:08;;;;;;;128.25;53.65;;;;;;;-7.94;75.67;99503.16;10303606;28;20068;-59
2024/01/22 08:18:07;;;;;;;90.40;40.17;;;;;;;-8.41;78.79;99504.34;10320761;28;20069;-58
2024/01/22 08:23:07;;;;;;;110.95;45.45;;;;;;;-8.19;79.35;99573.75;10320688;28;20045;-59
2024/01/22 08:28:06;;;;;;;120.82;56.08;;;;;;;-8.11;79.41;99537.66;10313246;28;20179;-59
2024/01/22 08:33:05;;;;;;;115.53;54.80;;;;;;;-7.59;78.91;99562.97;10307797;28;20033;-58
2024/01/22 08:38:04;;;;;;;131.18;57.50;;;;;;;-7.10;78.52;99571.03;10321428;28;20045;-59
2024/01/22 08:43:03;;;;;;;;;;;;;;;-6.72;78.29;99567.09;10323414;28;20501;-59
2024/01/22 08:48:03;;;;;;;111.95;53.70;;;;;;;-6.47;77.37;99550.13;10313965;28;20501;-57
2024/01/22 08:53:02;;;;;;;110.88;57.80;;;;;;;-6.36;76.15;99538.47;10319190;28;20072;-58
2024/01/22 08:58:01;;;;;;;;;;;;;;;-5.93;75.26;99572.81;10320285;28;20076;-57
2024/01/22 09:03:00;;;;;;;166.73;77.07;;;;;;;-5.86;74.38;99569.22;10319340;28;20437;-57
2024/01/22 09:07:59;;;;;;;;;;;;;;;-5.77;74.78;99563.38;10327696;28;20474;-57
2024/01/22 09:12:57;;;;;;;112.87;55.93;;;;;;;-5.78;75.61;99517.72;10319349;28;19918;-57
2024/01/22 09:17:57;;;;;;;;;;;;;;;-5.27;73.85;99556.94;10329328;28;20116;-57
2024/01/22 09:22:56;;;;;;;110.95;58.55;;;;;;;-5.04;74.65;99541.28;10320979;28;19949;-57
2024/01/22 09:27:55;;;;;;;;;;;;;;;-4.60;73.94;99545.94;10326800;28;20041;-58
2024/01/22 09:32:57;;;;;;;108.32;57.03;;;;;;;-4.36;74.19;99542.09;10306507;28;19984;-58
2024/01/22 09:37:56;;;;;;;119.50;60.40;;;;;;;-4.82;73.81;99422.53;10319053;28;20060;-58
2024/01/22 09:42:56;;;;;;;165.55;91.88;;;;;;;-4.19;71.94;99501.31;10321168;28;20060;-58
2024/01/22 09:47:56;;;;;;;169.00;91.10;;;;;;;-3.97;72.66;99533.59;10319835;28;20061;-58
2024/01/22 09:53:08;;;;;;;147.55;84.13;;;;;;;-4.18;73.18;99484.50;10312912;28;20450;-57
2024/01/22 09:58:09;;;;;;;155.50;87.15;;;;;;;-3.72;73.65;99520.41;10339547;28;20075;-58
2024/01/22 10:03:08;;;;;;;137.15;73.00;;;;;;;-3.57;73.59;99517.50;10321876;28;20085;-58
2024/01/22 10:08:07;;;;;;;113.55;62.15;;;;;;;-3.37;73.44;99520.78;10314144;28;20513;-58
2024/01/22 10:13:09;;;;;;;;;;;;;;;-3.15;73.25;99524.31;10296682;28;20802;-58
2024/01/22 10:18:13;;;;;;;81.47;44.60;;;;;;;-3.21;72.60;99451.84;10324800;28;20055;-58
2024/01/22 10:23:14;;;;;;;75.03;43.92;;;;;;;-2.81;73.18;99495.63;10329627;28;20490;-58
2024/01/22 10:28:17;;;;;;;73.68;39.80;;;;;;;-2.42;72.27;99491.94;10328526;28;20076;-58
2024/01/22 10:33:18;;;;;;;65.70;36.50;;;;;;;-2.43;70.37;99449.47;10309378;28;20530;-57
2024/01/22 10:38:19;;;;;;;73.60;42.65;;;;;;;-2.14;71.29;99437.31;10326106;28;20470;-57
2024/01/22 10:43:24;;;;;;;77.75;44.60;;;;;;;-2.09;69.53;99424.97;10288932;28;20076;-58
2024/01/22 10:48:28;;;;;;;70.35;42.30;;;;;;;-1.80;69.07;99452.56;10321550;28;20068;-58
2024/01/22 10:53:27;;;;;;;78.57;46.28;;;;;;;-1.70;67.67;99465.22;10299689;28;20063;-58
2024/01/22 10:58:30;;;;;;;60.03;36.03;;;;;;;-1.53;68.47;99448.66;10309260;28;20065;-57
2024/01/22 11:03:35;;;;;;;55.65;32.30;;;;;;;-1.56;69.29;99414.44;10319083;28;20512;-57
2024/01/22 11:08:35;;;;;;;65.30;37.13;;;;;;;-1.43;69.10;99447.66;10322401;28;20060;-57
2024/01/22 11:13:34;;;;;;;60.97;37.25;;;;;;;-1.40;68.93;99388.44;10319872;28;20061;-57
2024/01/22 11:18:33;;;;;;;67.53;37.40;;;;;;;-1.08;68.77;99391.63;10320434;28;20563;-57
2024/01/22 11:23:32;;;;;;;44.00;26.85;;;;;;;-0.96;66.88;99418.75;10319252;28;20533;-57
2024/01/22 11:28:31;;;;;;;34.92;20.33;;;;;;;-1.48;64.57;99314.06;10323991;28;20037;-58
2024/01/22 11:33:31;;;;;;;28.17;17.52;;;;;;;-0.59;65.00;99414.56;10321336;28;20033;-58
2024/01/22 11:38:42;;;;;;;24.20;15.63;;;;;;;-0.26;65.38;99404.94;10324245;28;20068;-58
2024/01/22 11:43:41;;;;;;;21.98;13.27;;;;;;;-0.51;66.22;99296.16;10324153;28;20062;-58
2024/01/22 11:48:40;;;;;;;21.55;14.02;;;;;;;-0.06;63.79;99381.66;10323432;28;20037;-57
2024/01/22 11:53:53;;;;;;;24.75;16.35;;;;;;;0.03;61.57;99386.47;10300167;28;20038;-57
2024/01/22 11:59:01;;;;;;;24.63;15.63;;;;;;;0.09;60.67;99397.09;10325624;28;20076;-57
2024/01/22 12:04:09;;;;;;;24.27;14.85;;;;;;;-0.96;61.18;99162.28;10324613;28;20099;-56
2024/01/22 12:09:08;;;;;;;28.57;17.53;;;;;;;0.28;60.63;99337.91;10323299;28;20091;-56
2024/01/22 12:14:11;;;;;;;26.83;17.02;;;;;;;0.44;60.36;99361.09;10325003;28;20071;-56
2024/01/22 12:19:11;;;;;;;22.75;13.85;;;;;;;0.79;61.36;99361.59;10323391;28;20112;-56
2024/01/22 12:24:14;;;;;;;20.17;12.90;;;;;;;0.82;60.81;99295.34;10324928;28;20068;-56
2024/01/22 12:29:24;;;;;;;22.25;14.10;;;;;;;1.35;59.58;99340.34;10324357;28;20053;-56
2024/01/22 12:34:23;;;;;;;29.27;16.77;;;;;;;1.31;60.10;99276.19;10322311;28;20510;-56
2024/01/22 12:39:22;;;;;;;34.72;19.52;;;;;;;1.56;57.86;99285.34;10320661;28;20116;-56
2024/01/22 12:44:21;;;;;;;26.33;16.63;;;;;;;1.42;56.80;99250.41;10321472;28;20080;-56
2024/01/22 12:49:20;;;;;;;28.10;16.35;;;;;;;1.46;58.00;99260.91;10320816;28;20120;-56
2024/01/22 12:54:19;;;;;;;20.02;13.70;;;;;;;1.30;57.68;99258.22;10321039;28;20042;-56
2024/01/22 12:59:18;;;;;;;20.98;12.27;;;;;;;1.32;58.20;99272.88;10320309;28;20127;-56
2024/01/22 13:04:17;;;;;;;27.88;16.75;;;;;;;0.21;58.08;99083.00;10322109;28;20154;-56
2024/01/22 13:09:17;;;;;;;20.92;12.95;;;;;;;1.13;58.25;99241.88;10308823;28;20073;-57
2024/01/22 13:14:16;;;;;;;45.15;24.02;;;;;;;0.98;57.82;99217.94;10323579;28;20064;-57
2024/01/22 13:19:15;;;;;;;33.42;18.55;;;;;;;0.52;58.33;99118.94;10320499;28;20132;-57
2024/01/22 13:24:14;;;;;;;35.85;20.73;;;;;;;1.48;58.46;99287.47;10317214;28;20120;-56
2024/01/22 13:29:13;;;;;;;21.08;13.35;;;;;;;1.37;56.70;99269.72;10302615;28;20058;-56
2024/01/22 13:34:12;;;;;;;17.55;10.80;;;;;;;1.32;55.97;99256.66;10307324;28;20030;-56
2024/01/22 13:39:12;;;;;;;19.67;12.07;;;;;;;1.37;56.72;99269.72;10323065;28;20045;-56
2024/01/22 13:44:13;;;;;;;17.10;9.85;;;;;;;1.42;56.79;99278.53;10313093;28;20119;-56
2024/01/22 13:49:12;;;;;;;37.38;21.65;;;;;;;1.44;56.82;99282.06;10324136;28;20128;-56
2024/01/22 13:54:11;;;;;;;24.60;16.85;;;;;;;0.76;57.30;99155.31;10316531;28;20033;-56
2024/01/22 13:59:12;;;;;;;23.75;15.18;;;;;;;1.43;57.19;99250.47;10335181;28;20049;-56
2024/01/22 14:04:11;;;;;;;18.40;10.90;;;;;;;1.57;57.81;99251.28;10330497;28;20083;-56
2024/01/22 14:09:10;;;;;;;;;;;;;;;1.72;58.96;99262.41;10320610;28;20129;-56
2024/01/22 14:14:10;;;;;;;15.18;10.82;;;;;;;1.70;59.16;99258.88;10341709;28;19913;-56
2024/01/22 14:19:09;;;;;;;17.92;11.90;;;;;;;1.28;58.85;99178.84;10345958;28;20077;-57
2024/01/22 14:24:08;;;;;;;19.25;10.93;;;;;;;1.61;58.22;99219.97;10339574;28;20088;-58
2024/01/22 14:29:08;;;;;;;19.88;12.75;;;;;;;1.59;58.62;99213.00;10334649;28;20122;-56
2024/01/22 14:34:07;;;;;;;21.00;12.70;;;;;;;0.88;58.68;99099.81;10345096;28;20060;-56
2024/01/22 14:39:10;;;;;;;22.60;14.93;;;;;;;1.46;59.19;99203.75;10333192;28;20117;-56
2024/01/22 14:44:12;;;;;;;27.60;16.83;;;;;;;1.20;58.70;99157.06;10347915;28;20259;-56
2024/01/22 14:49:11;;;;;;;31.23;19.10;;;;;;;1.01;58.88;99149.97;10343119;28;20060;-56
2024/01/22 14:54:11;;;;;;;;;;;;;;;1.36;59.83;99217.66;10351411;28;20850;-56
2024/01/22 14:59:10;;;;;;;57.83;35.67;;;;;;;0.72;59.76;99145.69;10342944;28;19967;-56
2024/01/22 15:04:09;;;;;;;84.05;49.13;;;;;;;0.92;62.16;99209.88;10339118;28;20421;-56
2024/01/22 15:09:09;;;;;;;95.63;52.53;;;;;;;0.57;63.23;99218.84;10321991;28;20124;-57
2024/01/22 15:14:12;;;;;;;76.95;45.42;;;;;;;0.28;62.50;99169.41;10312571;28;20132;-56
2024/01/22 15:19:11;;;;;;;77.43;44.72;;;;;;;-0.88;63.32;99013.34;10311715;28;20124;-56
2024/01/22 15:24:11;;;;;;;63.92;36.38;;;;;;;0.09;63.88;99209.88;10321452;28;20073;-56
2024/01/22 15:29:10;;;;;;;56.22;32.20;;;;;;;-1.16;64.18;99038.69;10338311;28;20072;-56
2024/01/22 15:34:09;;;;;;;53.20;31.50;;;;;;;-0.81;65.03;99160.78;10341615;28;20025;-56
2024/01/22 15:39:08;;;;;;;59.33;37.30;;;;;;;-0.52;64.85;99211.91;10339514;28;20526;-56
2024/01/22 15:44:09;;;;;;;61.10;37.83;;;;;;;-0.83;65.38;99197.13;10327541;28;20553;-56
2024/01/22 15:49:08;;;;;;;58.75;37.80;;;;;;;-1.13;66.10;99176.44;10314431;28;20128;-56
2024/01/22 15:54:07;;;;;;;54.03;35.92;;;;;;;-1.39;66.61;99161.94;10365797;28;20076;-56
2024/01/22 15:59:08;;;;;;;47.03;32.65;;;;;;;-1.54;66.66;99160.88;10366164;28;20060;-56
2024/01/22 16:04:07;;;;;;;40.65;25.77;;;;;;;-1.46;67.09;99196.28;10348817;28;20084;-57
2024/01/22 16:09:06;;;;;;;34.95;22.05;;;;;;;-1.70;67.14;99174.22;10325951;28;20033;-57
2024/01/22 16:14:05;;;;;;;49.03;29.63;;;;;;;-1.67;67.48;99213.47;10324506;28;20120;-57
2024/01/22 16:19:04;;;;;;;47.75;31.30;;;;;;;-2.26;67.49;99110.94;10325419;28;20029;-56
2024/01/22 16:24:03;;;;;;;87.03;45.88;;;;;;;-2.13;67.88;99151.69;10325266;28;20471;-57
2024/01/22 16:29:02;;;;;;;85.90;47.60;;;;;;;-2.07;68.29;99175.03;10325035;28;20074;-57
2024/01/22 16:34:02;;;;;;;103.32;57.83;;;;;;;-2.24;68.35;99151.72;10324718;28;20112;-57
2024/01/22 16:39:01;;;;;;;69.55;41.35;;;;;;;-2.33;68.63;99149.41;10324047;28;20069;-56
2024/01/22 16:44:00;;;;;;;71.18;42.25;;;;;;;-2.31;69.68;99168.22;10323532;28;20034;-57
2024/01/22 16:49:00;;;;;;;65.32;41.28;;;;;;;-2.54;71.71;99156.38;10324474;28;20458;-58
2024/01/22 16:53:59;;;;;;;66.05;39.28;;;;;;;-2.87;72.32;99125.19;10323397;28;20053;-57
2024/01/22 16:59:00;;;;;;;62.08;36.40;;;;;;;-2.89;74.05;99130.94;10324065;28;20033;-56
2024/01/22 17:03:59;;;;;;;50.05;29.50;;;;;;;-2.95;74.22;99156.75;10303758;28;20084;-56
2024/01/22 17:08:58;;;;;;;59.17;37.38;;;;;;;-3.01;74.94;99176.63;10283596;28;20062;-57
2024/01/22 17:13:57;;;;;;;40.67;24.77;;;;;;;-3.14;74.40;99145.22;10283620;28;20030;-57
2024/01/22 17:18:56;;;;;;;57.92;32.20;;;;;;;-3.26;74.26;99125.66;10282633;28;20479;-56
2024/01/22 17:23:55;;;;;;;41.08;26.23;;;;;;;-3.23;74.74;99157.22;10282208;28;20116;-56
2024/01/22 17:28:54;;;;;;;41.03;23.38;;;;;;;-3.31;74.78;99162.50;10282929;28;20034;-56
2024/01/22 17:33:52;;;;;;;43.03;24.13;;;;;;;-3.94;74.23;99052.03;10282423;28;20033;-57
2024/01/22 17:38:51;;;;;;;54.03;31.00;;;;;;;-3.51;74.13;99126.31;10282800;28;20117;-57
2024/01/22 17:43:50;;;;;;;71.55;39.03;;;;;;;-3.65;74.04;99099.03;10282745;28;20041;-57
2024/01/22 17:48:50;;;;;;;95.72;52.72;;;;;;;-3.41;74.61;99169.41;10281995;28;20038;-57
2024/01/22 17:53:49;;;;;;;125.93;69.53;;;;;;;-3.46;75.46;99122.50;10281242;28;20069;-55
2024/01/22 17:58:48;;;;;;;136.30;75.03;;;;;;;-4.11;75.43;99020.34;10282424;28;20065;-55
2024/01/22 18:03:47;;;;;;;152.05;89.38;;;;;;;-3.71;75.65;99071.56;10299760;28;20049;-55
2024/01/22 18:08:46;;;;;;;;;;;;;;;-3.57;75.71;99103.03;10320797;28;20045;-56
2024/01/22 18:13:44;;;;;;;200.40;113.07;;;;;;;-3.60;75.79;99105.31;10320997;28;20002;-55
2024/01/22 18:18:43;;;;;;;182.35;101.50;;;;;;;-4.35;76.21;98958.50;10320468;28;20076;-55
2024/01/22 18:23:42;;;;;;;203.00;114.95;;;;;;;-3.72;76.86;99073.97;10319417;28;20038;-55
2024/01/22 18:28:41;;;;;;;227.07;124.53;;;;;;;-4.18;78.15;99028.25;10320661;28;20041;-56
2024/01/22 18:33:42;;;;;;;181.40;102.65;;;;;;;-4.09;79.04;99046.69;10280525;28;20141;-56
2024/01/22 18:38:41;;;;;;;156.73;83.22;;;;;;;-4.23;79.57;99045.63;10324543;28;20069;-57
2024/01/22 18:43:40;;;;;;;110.25;63.47;;;;;;;-3.94;78.63;99058.78;10328009;28;20026;-57
2024/01/22 18:48:39;;;;;;;85.97;46.42;;;;;;;-4.15;79.22;99046.22;10328083;28;20029;-57
2024/01/22 18:53:40;;;;;;;72.65;41.20;;;;;;;-4.35;78.37;99015.91;10328476;28;20040;-56
2024/01/22 18:58:39;;;;;;;67.68;38.40;;;;;;;-4.56;78.76;98969.53;10327714;28;20072;-55
2024/01/22 19:03:37;;;;;;;84.45;42.35;;;;;;;-4.30;78.72;99023.09;10326569;28;20056;-56
2024/01/22 19:08:36;;;;;;;54.72;31.45;;;;;;;-4.48;79.35;99009.00;10326633;28;20112;-56
2024/01/22 19:13:35;;;;;;;;;;;;;;;-4.38;78.70;99021.63;10327060;28;20076;-56
2024/01/22 19:18:34;;;;;;;64.53;36.83;;;;;;;-4.65;78.08;98998.44;10325845;28;19909;-56
2024/01/22 19:23:33;;;;;;;69.90;37.28;;;;;;;-5.04;77.83;98921.13;10325949;28;20065;-55
2024/01/22 19:28:32;;;;;;;87.13;47.35;;;;;;;-5.88;77.61;98783.84;10327209;28;20483;-55
2024/01/22 19:33:31;;;;;;;;;;;;;;;-4.70;77.87;98998.84;10326944;28;20485;-56
2024/01/22 19:38:30;;;;;;;109.15;59.40;;;;;;;-4.77;78.68;98984.84;10326171;28;20414;-58
2024/01/22 19:43:29;;;;;;;;;;;;;;;-4.80;77.86;98989.63;10309409;28;20455;-57
2024/01/22 19:48:28;;;;;;;113.20;59.75;;;;;;;-5.46;78.34;98861.31;10326645;28;20019;-58
2024/01/22 19:53:26;;;;;;;;;;;;;;;-4.89;79.31;98969.53;10326183;28;20021;-57
2024/01/22 19:58:25;;;;;;;112.53;55.45;;;;;;;-5.50;79.56;98874.47;10326231;28;20413;-57
2024/01/22 20:03:24;;;;;;;;;;;;;;;-5.20;80.94;98965.34;10326250;28;20073;-57
2024/01/22 20:08:24;;;;;;;91.80;51.33;;;;;;;-5.32;80.76;98939.97;10325040;28;19913;-57
2024/01/22 20:13:23;;;;;;;80.22;42.55;;;;;;;-5.28;81.40;98958.03;10325801;28;20853;-57
2024/01/22 20:18:22;;;;;;;;;;;;;;;-5.24;81.01;98969.28;10325535;28;20027;-57
2024/01/22 20:23:21;;;;;;;66.28;36.92;;;;;;;-5.90;81.05;98890.63;10322772;28;20381;-58
2024/01/22 20:28:20;;;;;;;;;;;;;;;-5.49;83.04;98974.91;10325678;28;20031;-57
2024/01/22 20:33:18;;;;;;;57.67;31.50;;;;;;;-5.73;83.03;98970.34;10325149;28;19919;-57
2024/01/22 20:38:17;;;;;;;;;;;;;;;-5.67;82.03;98991.97;10306708;28;20970;-58
2024/01/22 20:43:18;;;;;;;59.60;31.02;;;;;;;-5.62;82.29;98994.88;10306864;28;19916;-58
2024/01/22 20:48:18;;;;;;;66.22;36.45;;;;;;;-5.85;82.10;98950.00;10323686;28;20072;-58
2024/01/22 20:53:17;;;;;;;69.55;38.15;;;;;;;-5.52;81.65;98992.38;10323939;28;20065;-57
2024/01/22 20:58:15;;;;;;;;;;;;;;;-5.77;82.13;98983.53;10305436;28;20099;-57
2024/01/22 21:03:15;;;;;;;82.03;43.17;;;;;;;-5.97;82.52;98970.09;10322920;28;20381;-57
2024/01/22 21:08:14;;;;;;;89.85;49.13;;;;;;;-6.33;83.90;98917.44;10314857;28;20065;-58
2024/01/22 21:13:13;;;;;;;;;;;;;;;-5.82;82.43;98980.63;10323503;28;20038;-57
2024/01/22 21:18:12;;;;;;;116.40;58.30;;;;;;;-6.34;83.48;98876.16;10323458;28;19963;-57
2024/01/22 21:23:11;;;;;;;;;;;;;;;-5.88;83.39;98960.75;10323576;28;20097;-57
2024/01/22 21:28:10;;;;;;;154.80;81.20;;;;;;;-5.88;83.21;98963.28;10323647;28;19909;-58
2024/01/22 21:33:09;;;;;;;92.97;48.78;;;;;;;-5.84;83.63;98961.91;10323748;28;20537;-57
2024/01/22 21:38:08;;;;;;;;;;;;;;;-5.85;82.72;98980.34;10323372;28;20108;-58
2024/01/22 21:43:07;;;;;;;76.67;39.53;;;;;;;-6.09;81.83;98948.88;10323123;28;20382;-57
2024/01/22 21:48:06;;;;;;;;;;;;;;;-5.97;81.68;98964.19;10323648;28;20036;-58
2024/01/22 21:53:04;;;;;;;77.10;39.03;;;;;;;-6.00;81.84;98954.72;10323096;28;20290;-58
2024/01/22 21:58:03;;;;;;;;;;;;;;;-6.29;81.45;98959.88;10323675;28;20025;-57
2024/01/22 22:03:02;;;;;;;63.23;31.40;;;;;;;-6.56;82.18;98933.19;10321909;28;19917;-58
2024/01/22 22:08:01;;;;;;;81.47;38.00;;;;;;;-7.28;82.12;98824.53;10321776;28;20068;-57
2024/01/22 22:13:00;;;;;;;87.15;41.28;;;;;;;-6.83;82.65;98902.34;10325163;28;20061;-57
2024/01/22 22:17:59;;;;;;;;;;;;;;;-6.58;82.49;98906.91;10330812;28;20442;-58
2024/01/22 22:22:58;;;;;;;76.20;35.33;;;;;;;-6.93;82.93;98860.25;10329824;28;20000;-58
2024/01/22 22:27:57;;;;;;;;;;;;;;;-6.67;82.91;98884.28;10330548;28;20035;-57
2024/01/22 22:32:58;;;;;;;70.43;34.80;;;;;;;-6.95;82.91;98866.88;10330192;28;20659;-57
2024/01/22 22:37:57;;;;;;;68.05;32.35;;;;;;;-7.07;83.09;98837.19;10329205;28;20072;-57
2024/01/22 22:42:56;;;;;;;60.80;29.05;;;;;;;-7.60;83.13;98774.78;10329338;28;20172;-57
2024/01/22 22:47:55;;;;;;;52.42;27.10;;;;;;;-7.24;82.46;98840.81;10329180;28;20056;-57
2024/01/22 22:52:53;;;;;;;54.33;26.75;;;;;;;-7.06;82.71;98856.63;10310637;28;20040;-57
2024/01/22 22:57:54;;;;;;;77.47;35.50;;;;;;;-7.03;82.67;98856.88;10328727;28;20025;-57